罗盘
风向 的 风向 的 风向 到 风向 020° Stadskanaal Airfield 6/24
风: 3 kt, 1 beaufort

2 kt

2 kt
改变
0 1.000 2.000 3.000 4.000 5.000
OVC 0 ft
METAR EHGG 170355Z AUTO 02003KT 340V050 0450 R23/0600N FG OVC000 17/17 Q1010

METAR Stadskanaal Airfield - EHST

Stadskanaal Airfield是Stadskanaal,荷兰中的小机场。 该机场有一条跑道: 6/24. 该领域的国际民航组织标志是EHST.

这份报告是针对2022年8月17日 05:55, 当地时间在Groningen Airport Eelde进行的。

机场观察

风向为020°,速度为3 kt。 风向在340°和050°之间变化。

可见度为450 m。 跑道23的能见度为600 m 和 没有趋势。

有乌云密布。 没有观察到天花板。

当前天气为多雾路段。 温度和风寒是17 °C。 露点为17 °C,相对湿度为100%。 海平面上的气压为1010 hPa (QNH)。

白天

今天,太阳从06:16升起,在20:55降落。 这适用于Stadskanaal Airfield,世界夏令时可能有所不同。 当地时间与世界标准时间之间的时差为+2 小时。 夏令时目前正在进行中。

公司介绍

我们没有关于这个机场的公司信息。

体会

到Vliegles.nl去找飞行课程,跳伞和其他飞行体验。 浏览页面,了解Stadskanaal Airfield附近所有可用的活动。 你也可以使用搜索功能来寻找你所在地附近的特定飞行课程、跳伞或其他飞行体验。

警示语

跑道23处的能见度为600 m 和 没有趋势。

跑道

Id 标题 侧风 逆风 侧风 %
6/24 058°-238° 2 kt 2 kt 62 %

逆风成分最大的方向会被突出显示,并用于横风计算。 这并不一定意味着这个方向在使用。

乌云

0 ft OVC 乌云密布

温度 & 天气

天气 多雾路段
温度 17 °C
露点 17 °C
相对湿度 100%
Kp-index 3  

白天

日出
06:18 (1m)
中午
13:37
日落
20:57

小工具

你想在你的网站上有一个关于Stadskanaal Airfield的当前航空天气(METAR)的小部件吗?

</> 显示HTML代码

我们和第三方通过cookies跟踪您在我们网站上的上网行为。如果您继续,我们认为您同意我们的cookie政策。 了解更多